Time;durP1;ratioP1;P1;durP2;ratioP2;P2;SDS_P1;SDS_P2;PMS_P1;PMS_P2;Temp;Humidity;BMP_temperature;BMP_pressure;BME280_temperature;BME280_humidity;BME280_pressure;Samples;Min_cycle;Max_cycle;Signal;HPM_P1;HPM_P2
2021/06/15 00:02:00;;;;;;;41.75;11.50;;;29.70;85.40;;;;;;5084413;28;20017;-50
2021/06/15 00:04:27;;;;;;;43.95;10.63;;;29.70;85.30;;;;;;5084303;28;20029;-49
2021/06/15 00:06:54;;;;;;;50.78;11.00;;;29.70;85.00;;;;;;5084218;28;20028;-47
2021/06/15 00:09:21;;;;;;;53.15;11.07;;;29.70;85.00;;;;;;5084207;28;20097;-47
2021/06/15 00:11:50;;;;;;;41.42;11.55;;;29.70;84.90;;;;;;5084004;28;20035;-52
2021/06/15 00:14:17;;;;;;;56.83;10.73;;;29.70;84.70;;;;;;5084016;28;20040;-53
2021/06/15 00:16:44;;;;;;;54.78;12.80;;;29.70;85.00;;;;;;5083761;28;20023;-51
2021/06/15 00:19:10;;;;;;;43.63;11.05;;;29.70;85.10;;;;;;5083877;28;20024;-46
2021/06/15 00:21:37;;;;;;;37.55;9.77;;;29.70;85.10;;;;;;5084354;28;20261;-49
2021/06/15 00:24:04;;;;;;;44.38;9.82;;;29.60;84.90;;;;;;5083798;28;20020;-48
2021/06/15 00:26:31;;;;;;;38.22;10.48;;;29.60;84.80;;;;;;5083791;28;20016;-60
2021/06/15 00:28:57;;;;;;;37.65;10.50;;;29.60;85.00;;;;;;5066102;28;20309;-51
2021/06/15 00:31:26;;;;;;;42.38;10.38;;;29.60;84.80;;;;;;5083616;28;20027;-46
2021/06/15 00:33:54;;;;;;;43.08;9.32;;;29.60;84.70;;;;;;5083697;28;20245;-48
2021/06/15 00:36:20;;;;;;;33.20;9.10;;;29.60;84.50;;;;;;5083419;28;20027;-50
2021/06/15 00:38:47;;;;;;;38.95;9.35;;;29.60;84.40;;;;;;5086459;28;20043;-49
2021/06/15 00:41:14;;;;;;;37.90;9.35;;;29.50;84.00;;;;;;5087352;28;20110;-49
2021/06/15 00:43:40;;;;;;;33.97;8.30;;;29.50;83.90;;;;;;5087195;28;20359;-50
2021/06/15 00:46:07;;;;;;;31.95;8.80;;;29.50;83.60;;;;;;5087281;28;20024;-46
2021/06/15 00:48:36;;;;;;;45.08;9.32;;;29.40;83.30;;;;;;5087436;28;20088;-46
2021/06/15 00:51:05;;;;;;;36.40;8.82;;;29.40;83.40;;;;;;5087108;28;20063;-49
2021/06/15 00:53:32;;;;;;;39.90;8.48;;;29.40;83.30;;;;;;5087380;28;20062;-48
2021/06/15 00:55:59;;;;;;;31.33;8.52;;;29.40;83.20;;;;;;5087410;28;20131;-49
2021/06/15 00:58:25;;;;;;;37.67;8.85;;;29.40;82.90;;;;;;5086924;28;20031;-52
2021/06/15 01:00:52;;;;;;;42.33;8.85;;;29.40;82.80;;;;;;5087151;28;20016;-47
2021/06/15 01:03:21;;;;;;;35.50;8.13;;;29.40;82.80;;;;;;5069410;28;20012;-47
2021/06/15 01:05:48;;;;;;;31.25;8.40;;;29.40;82.60;;;;;;5086898;28;20021;-45
2021/06/15 01:08:36;;;;;;;40.35;8.40;;;29.30;82.30;;;;;;5069375;28;20055;-49
2021/06/15 01:11:21;;;;;;;32.30;8.32;;;29.30;82.30;;;;;;5068924;28;20216;-48
2021/06/15 01:14:16;;;;;;;33.72;8.43;;;29.30;82.20;;;;;;5087055;28;20025;-50
2021/06/15 01:16:51;;;;;;;42.25;8.68;;;29.30;82.00;;;;;;5086790;28;20032;-49
2021/06/15 01:19:26;;;;;;;33.17;8.77;;;29.20;82.60;;;;;;5086917;28;20016;-49
2021/06/15 01:22:17;;;;;;;37.30;8.63;;;29.20;82.00;;;;;;5087099;28;20307;-57
2021/06/15 01:25:04;;;;;;;31.55;7.82;;;29.20;82.00;;;;;;5087167;28;20024;-52
2021/06/15 01:28:12;;;;;;;39.05;9.50;;;29.20;82.10;;;;;;5086366;28;20087;-52
2021/06/15 01:30:57;;;;;;;39.88;9.00;;;29.10;82.10;;;;;;5049097;28;20040;-50
2021/06/15 01:33:25;;;;;;;39.70;9.13;;;29.10;82.00;;;;;;5070314;28;20032;-56
2021/06/15 01:35:54;;;;;;;38.00;9.70;;;29.10;81.90;;;;;;5086610;28;20054;-51
2021/06/15 01:38:30;;;;;;;44.40;9.52;;;29.10;81.80;;;;;;5086286;28;20043;-50
2021/06/15 01:41:09;;;;;;;40.55;9.02;;;29.10;81.70;;;;;;5086531;28;20078;-50
2021/06/15 01:43:44;;;;;;;28.30;8.48;;;29.10;81.70;;;;;;5086458;28;20287;-52
2021/06/15 01:46:13;;;;;;;35.63;9.18;;;29.00;81.60;;;;;;5086369;28;20013;-49
2021/06/15 01:48:49;;;;;;;31.50;7.80;;;29.10;81.40;;;;;;5086464;28;20029;-49
2021/06/15 01:51:18;;;;;;;41.10;9.25;;;29.00;81.50;;;;;;5085811;28;20021;-50
2021/06/15 01:53:52;;;;;;;38.28;8.40;;;29.00;81.40;;;;;;5068611;28;20024;-51
2021/06/15 01:56:21;;;;;;;28.42;6.88;;;29.00;81.30;;;;;;5068601;28;20048;-54
2021/06/15 01:58:49;;;;;;;30.25;7.88;;;29.00;81.00;;;;;;5086412;28;20035;-50
2021/06/15 02:01:19;;;;;;;32.85;8.00;;;28.90;81.00;;;;;;5085938;28;20012;-50
2021/06/15 02:03:47;;;;;;;35.92;7.95;;;29.00;80.80;;;;;;5086401;28;20288;-51
2021/06/15 02:06:21;;;;;;;31.90;8.35;;;29.00;80.60;;;;;;5085745;28;20028;-50
2021/06/15 02:08:52;;;;;;;35.05;8.35;;;28.90;80.40;;;;;;5052582;28;20070;-54
2021/06/15 02:11:21;;;;;;;34.63;8.80;;;28.90;80.30;;;;;;5086031;28;20022;-51
2021/06/15 02:13:49;;;;;;;35.83;7.68;;;28.90;80.10;;;;;;5085839;28;20024;-53
2021/06/15 02:16:17;;;;;;;32.38;8.55;;;28.90;80.10;;;;;;5085483;28;20040;-51
2021/06/15 02:18:51;;;;;;;31.02;7.55;;;28.80;79.90;;;;;;5085633;28;20024;-51
2021/06/15 02:21:18;;;;;;;35.22;7.85;;;28.90;79.90;;;;;;5085458;28;20016;-48
2021/06/15 02:23:48;;;;;;;35.92;7.00;;;28.80;79.90;;;;;;5067894;28;20024;-53
2021/06/15 02:26:21;;;;;;;40.10;7.75;;;28.90;80.00;;;;;;5085316;28;20013;-49
2021/06/15 02:28:48;;;;;;;27.95;8.07;;;28.80;78.90;;;;;;5085149;28;20035;-47
2021/06/15 02:31:22;;;;;;;27.60;7.43;;;28.60;79.90;;;;;;5085406;28;20221;-54
2021/06/15 02:33:55;;;;;;;33.75;7.95;;;28.40;79.80;;;;;;5085459;28;20021;-48
2021/06/15 02:36:32;;;;;;;39.30;8.05;;;28.30;79.80;;;;;;5085182;28;20043;-47
2021/06/15 02:39:12;;;;;;;33.55;6.55;;;28.30;80.00;;;;;;5085363;28;20023;-47
2021/06/15 02:41:41;;;;;;;41.75;8.07;;;28.20;79.70;;;;;;5083890;28;20346;-43
2021/06/15 02:44:09;;;;;;;35.83;8.65;;;28.30;80.30;;;;;;5096144;28;20055;-51
2021/06/15 02:46:37;;;;;;;33.13;9.00;;;28.30;79.80;;;;;;5105277;28;20289;-49
2021/06/15 02:49:13;;;;;;;33.45;7.90;;;28.30;80.10;;;;;;5104057;28;20024;-47
2021/06/15 02:52:06;;;;;;;29.15;7.75;;;28.20;80.20;;;;;;5105074;28;20083;-46
2021/06/15 02:54:47;;;;;;;30.75;7.63;;;28.20;80.00;;;;;;5088577;28;20329;-54
2021/06/15 02:57:16;;;;;;;25.80;7.57;;;28.10;80.00;;;;;;5084732;28;20039;-46
2021/06/15 02:59:43;;;;;;;33.47;7.95;;;28.20;80.40;;;;;;5084817;28;20021;-44
2021/06/15 03:02:12;;;;;;;30.70;8.38;;;28.10;80.40;;;;;;5085227;28;20047;-51
2021/06/15 03:04:39;;;;;;;41.85;15.90;;;28.10;80.30;;;;;;5084617;28;20072;-46
2021/06/15 03:07:06;;;;;;;34.80;10.60;;;28.20;80.00;;;;;;5085164;28;20024;-42
2021/06/15 03:09:32;;;;;;;28.73;7.95;;;28.10;80.00;;;;;;5083908;28;20023;-45
2021/06/15 03:12:10;;;;;;;36.05;8.63;;;28.10;80.10;;;;;;5084917;28;20046;-45
2021/06/15 03:14:38;;;;;;;25.98;7.05;;;28.10;79.60;;;;;;5084259;28;20071;-43
2021/06/15 03:17:07;;;;;;;36.30;7.75;;;28.10;79.30;;;;;;5084881;28;20035;-47
2021/06/15 03:20:02;;;;;;;27.13;6.90;;;28.20;79.60;;;;;;5084175;28;20016;-45
2021/06/15 03:22:53;;;;;;;36.95;6.97;;;28.10;79.30;;;;;;5084095;28;20024;-49
2021/06/15 03:25:25;;;;;;;36.13;7.85;;;28.10;79.50;;;;;;5080305;28;20020;-47
2021/06/15 03:28:05;;;;;;;31.27;7.22;;;28.10;79.70;;;;;;5091321;28;20017;-43
2021/06/15 03:30:32;;;;;;;31.77;6.50;;;28.10;79.60;;;;;;5068878;28;20158;-48
2021/06/15 03:33:13;;;;;;;27.13;6.55;;;28.00;79.50;;;;;;5092264;28;20077;-43
2021/06/15 03:35:42;;;;;;;33.45;7.13;;;28.00;79.70;;;;;;5090178;28;20028;-43
2021/06/15 03:38:13;;;;;;;29.70;7.05;;;28.00;79.30;;;;;;5073218;28;20024;-40
2021/06/15 03:40:48;;;;;;;33.78;7.70;;;28.00;79.50;;;;;;5098951;28;20027;-48
2021/06/15 03:43:21;;;;;;;30.98;7.40;;;28.00;79.40;;;;;;5097462;28;20131;-45
2021/06/15 03:45:56;;;;;;;27.77;7.18;;;28.00;79.50;;;;;;5096028;28;20039;-45
2021/06/15 03:48:23;;;;;;;27.92;6.85;;;28.00;79.60;;;;;;5084080;28;20031;-48
2021/06/15 03:50:52;;;;;;;25.92;7.28;;;27.90;79.80;;;;;;5085456;28;20251;-50
2021/06/15 03:53:20;;;;;;;26.77;6.88;;;28.00;79.80;;;;;;5084068;28;20075;-45
2021/06/15 03:55:48;;;;;;;30.35;7.60;;;28.10;79.80;;;;;;5083599;28;20090;-47
2021/06/15 03:58:16;;;;;;;28.67;7.80;;;28.10;79.80;;;;;;5083868;28;20016;-46
2021/06/15 04:00:49;;;;;;;26.13;7.30;;;28.20;79.80;;;;;;5083988;28;20099;-44
2021/06/15 04:03:17;;;;;;;35.17;8.05;;;28.10;79.70;;;;;;5082815;28;20305;-47
2021/06/15 04:05:46;;;;;;;29.73;6.63;;;28.20;79.80;;;;;;5081980;28;20029;-44
2021/06/15 04:08:19;;;;;;;29.90;7.10;;;28.20;79.50;;;;;;5100717;28;20089;-50
2021/06/15 04:10:46;;;;;;;;;;;28.10;79.30;;;;;;5103572;28;20020;-52
2021/06/15 04:13:15;;;;;;;27.33;7.10;;;28.10;79.30;;;;;;5103659;28;19904;-52
2021/06/15 04:15:42;;;;;;;31.95;7.35;;;28.20;79.20;;;;;;5103902;28;20265;-45
2021/06/15 04:18:12;;;;;;;29.90;7.15;;;28.10;79.00;;;;;;5103966;28;20028;-48
2021/06/15 04:20:41;;;;;;;27.02;6.85;;;28.20;78.90;;;;;;5103576;28;20205;-43
2021/06/15 04:23:09;;;;;;;29.20;7.05;;;28.10;78.70;;;;;;5103873;28;20015;-46
2021/06/15 04:25:41;;;;;;;24.45;6.43;;;28.20;79.10;;;;;;5103832;28;20026;-44
2021/06/15 04:28:10;;;;;;;26.73;7.18;;;28.20;78.80;;;;;;5103591;28;20024;-56
2021/06/15 04:30:37;;;;;;;25.23;6.88;;;28.10;78.70;;;;;;5092326;28;20039;-46
2021/06/15 04:33:08;;;;;;;25.83;6.90;;;28.10;78.70;;;;;;5103741;28;20030;-42
2021/06/15 04:35:41;;;;;;;27.83;6.57;;;28.10;78.80;;;;;;5103867;28;20023;-44
2021/06/15 04:38:22;;;;;;;31.23;6.95;;;28.10;79.00;;;;;;5102809;28;20087;-47
2021/06/15 04:40:58;;;;;;;26.75;6.88;;;28.10;79.10;;;;;;5103924;28;20095;-49
2021/06/15 04:43:44;;;;;;;28.60;6.65;;;28.10;79.20;;;;;;5103553;28;20016;-49
2021/06/15 04:46:27;;;;;;;23.85;6.93;;;28.10;79.30;;;;;;5104182;28;20026;-50
2021/06/15 04:49:13;;;;;;;29.08;6.57;;;28.10;80.10;;;;;;5103554;28;20072;-44
2021/06/15 04:51:41;;;;;;;31.48;6.32;;;28.10;79.70;;;;;;5103627;28;20043;-46
2021/06/15 04:54:09;;;;;;;32.50;7.35;;;28.00;79.70;;;;;;5103293;28;20047;-46
2021/06/15 04:56:37;;;;;;;31.40;6.88;;;28.10;79.80;;;;;;5103448;28;20162;-44
2021/06/15 04:59:04;;;;;;;29.10;6.40;;;28.00;79.60;;;;;;5103546;28;20225;-45
2021/06/15 05:01:35;;;;;;;25.50;6.57;;;28.00;79.50;;;;;;5103386;28;20031;-47
2021/06/15 05:04:03;;;;;;;24.88;6.25;;;28.00;79.40;;;;;;5094834;28;20016;-43
2021/06/15 05:06:30;;;;;;;26.35;6.53;;;28.00;79.10;;;;;;5103814;28;20020;-44
2021/06/15 05:09:08;;;;;;;28.02;6.55;;;28.00;79.20;;;;;;5103723;28;20303;-47
2021/06/15 05:11:37;;;;;;;24.67;5.78;;;28.00;78.90;;;;;;5103842;28;20020;-47
2021/06/15 05:14:07;;;;;;;28.65;7.13;;;28.00;78.70;;;;;;5103327;28;20012;-44
2021/06/15 05:16:38;;;;;;;30.13;6.60;;;27.90;78.90;;;;;;5103450;28;20011;-45
2021/06/15 05:19:06;;;;;;;24.95;6.55;;;28.00;78.40;;;;;;5085327;28;20016;-47
2021/06/15 05:21:41;;;;;;;28.45;7.30;;;27.90;78.40;;;;;;5103591;28;20230;-43
2021/06/15 05:24:29;;;;;;;20.73;5.60;;;27.90;78.60;;;;;;5103361;28;20016;-50
2021/06/15 05:26:55;;;;;;;25.60;6.25;;;27.90;78.10;;;;;;5106966;28;20026;-44
2021/06/15 05:29:22;;;;;;;30.58;6.55;;;27.90;78.20;;;;;;5106870;28;20016;-47
2021/06/15 05:31:49;;;;;;;25.00;7.30;;;27.90;78.80;;;;;;5107099;28;20020;-45
2021/06/15 05:34:15;;;;;;;25.55;5.78;;;27.90;79.00;;;;;;5106978;28;20368;-49
2021/06/15 05:36:45;;;;;;;32.35;6.53;;;27.80;78.90;;;;;;5106891;28;20305;-49
2021/06/15 05:39:12;;;;;;;25.42;6.45;;;27.80;78.80;;;;;;5106506;28;20087;-54
2021/06/15 05:41:39;;;;;;;23.63;6.10;;;27.80;78.80;;;;;;5107023;28;20020;-50
2021/06/15 05:44:05;;;;;;;28.30;6.65;;;27.80;79.00;;;;;;5106634;28;20246;-48
2021/06/15 05:46:32;;;;;;;27.92;6.70;;;27.80;79.10;;;;;;5105766;28;20088;-49
2021/06/15 05:48:58;;;;;;;30.08;6.78;;;27.80;79.00;;;;;;5105230;28;20031;-50
2021/06/15 05:51:26;;;;;;;30.40;6.75;;;27.70;79.10;;;;;;5106802;28;20219;-49
2021/06/15 05:53:52;;;;;;;27.15;7.13;;;27.70;79.40;;;;;;5106358;28;20019;-48
2021/06/15 05:56:19;;;;;;;23.63;6.57;;;27.70;79.70;;;;;;5106483;28;20397;-51
2021/06/15 05:58:46;;;;;;;27.63;6.72;;;27.70;79.70;;;;;;5106216;28;20083;-52
2021/06/15 06:01:12;;;;;;;21.13;5.97;;;27.70;80.10;;;;;;5092708;28;20074;-44
2021/06/15 06:03:44;;;;;;;24.02;6.20;;;27.70;80.30;;;;;;5085932;28;20016;-53
2021/06/15 06:08:55;;;;;;;33.00;10.95;;;27.70;80.30;;;;;;5085781;28;20031;-49
2021/06/15 06:11:22;;;;;;;34.65;17.17;;;27.60;80.50;;;;;;5085716;28;20225;-50
2021/06/15 06:13:53;;;;;;;50.03;18.48;;;27.60;80.40;;;;;;5085846;28;20312;-50
2021/06/15 06:16:19;;;;;;;36.38;20.10;;;27.60;80.80;;;;;;5085919;28;20074;-47
2021/06/15 06:18:46;;;;;;;36.22;15.73;;;27.60;80.50;;;;;;5085816;28;20198;-41
2021/06/15 06:21:13;;;;;;;34.78;11.90;;;27.60;80.50;;;;;;5085894;28;20031;-45
2021/06/15 06:23:40;;;;;;;33.17;9.95;;;27.60;80.60;;;;;;5085738;28;20023;-45
2021/06/15 06:26:07;;;;;;;32.78;9.50;;;27.60;80.50;;;;;;5085698;28;20025;-49
2021/06/15 06:28:34;;;;;;;32.60;8.85;;;27.60;81.40;;;;;;5085515;28;20033;-48
2021/06/15 06:31:00;;;;;;;31.85;8.55;;;27.60;81.00;;;;;;5085649;28;20036;-45
2021/06/15 06:33:27;;;;;;;27.55;7.65;;;27.50;80.90;;;;;;5085512;28;20021;-50
2021/06/15 06:35:54;;;;;;;27.15;8.15;;;27.50;80.90;;;;;;5085422;28;20052;-44
2021/06/15 06:38:20;;;;;;;28.70;7.63;;;27.50;80.80;;;;;;5085142;28;20083;-51
2021/06/15 06:40:48;;;;;;;24.25;7.65;;;27.50;80.60;;;;;;5085560;28;20249;-48
2021/06/15 06:43:14;;;;;;;34.42;7.95;;;27.50;80.60;;;;;;5085201;28;20031;-47
2021/06/15 06:45:41;;;;;;;23.90;6.97;;;27.50;80.60;;;;;;5085317;28;20028;-46
2021/06/15 06:48:08;;;;;;;31.30;7.72;;;27.50;80.50;;;;;;5067431;28;20337;-48
2021/06/15 06:50:35;;;;;;;25.38;6.88;;;27.50;80.60;;;;;;5085400;28;20134;-48
2021/06/15 06:53:02;;;;;;;27.73;6.82;;;27.50;80.60;;;;;;5084851;28;20052;-45
2021/06/15 06:55:29;;;;;;;25.52;6.43;;;27.50;80.60;;;;;;5085265;28;20048;-53
2021/06/15 06:57:57;;;;;;;32.33;7.10;;;27.50;80.50;;;;;;5084778;28;20083;-47
2021/06/15 07:00:24;;;;;;;31.25;6.53;;;27.50;80.40;;;;;;5084649;28;20024;-51
2021/06/15 07:02:51;;;;;;;24.08;5.90;;;27.50;80.60;;;;;;5085019;28;20021;-46
2021/06/15 07:05:18;;;;;;;20.27;5.90;;;27.40;80.50;;;;;;5084850;28;20088;-46
2021/06/15 07:07:45;;;;;;;24.50;6.32;;;27.40;80.50;;;;;;5084681;28;20043;-46
2021/06/15 07:10:13;;;;;;;28.02;6.75;;;27.40;80.40;;;;;;5084534;28;20020;-49
2021/06/15 07:12:39;;;;;;;23.48;5.82;;;27.40;80.30;;;;;;5084620;28;20058;-46
2021/06/15 07:15:07;;;;;;;21.13;5.63;;;27.40;80.10;;;;;;5084685;28;20075;-46
2021/06/15 07:17:33;;;;;;;26.98;6.32;;;27.40;80.20;;;;;;5084492;28;20313;-45
2021/06/15 07:20:00;;;;;;;20.13;5.55;;;27.40;80.50;;;;;;5084734;28;20013;-49
2021/06/15 07:22:27;;;;;;;21.00;5.28;;;27.40;79.90;;;;;;5085303;28;20024;-46
2021/06/15 07:24:53;;;;;;;28.00;6.18;;;27.40;79.70;;;;;;5066642;28;20354;-46
2021/06/15 07:27:20;;;;;;;31.50;6.43;;;27.40;79.60;;;;;;5084937;28;20115;-48
2021/06/15 07:29:46;;;;;;;21.15;5.28;;;27.40;79.30;;;;;;5084204;28;20016;-46
2021/06/15 07:32:13;;;;;;;23.10;5.40;;;27.40;79.60;;;;;;5085012;28;20070;-53
2021/06/15 07:34:40;;;;;;;19.38;5.38;;;27.40;79.50;;;;;;5084559;28;20024;-45
2021/06/15 07:37:07;;;;;;;22.80;5.70;;;27.40;79.60;;;;;;5084482;28;20190;-45
2021/06/15 07:39:34;;;;;;;25.40;6.43;;;27.40;79.50;;;;;;5084609;28;20023;-48
2021/06/15 07:42:01;;;;;;;23.48;6.55;;;27.40;79.70;;;;;;5084987;28;20198;-51
2021/06/15 07:44:28;;;;;;;26.27;6.13;;;27.40;79.30;;;;;;5084276;28;20017;-50
2021/06/15 07:46:55;;;;;;;23.65;6.30;;;27.40;79.30;;;;;;5084239;28;20213;-46
2021/06/15 07:49:22;;;;;;;26.25;6.20;;;27.40;79.40;;;;;;5084032;28;20020;-53
2021/06/15 07:51:50;;;;;;;23.20;6.22;;;27.40;79.30;;;;;;5084345;28;20102;-54
2021/06/15 07:54:16;;;;;;;19.63;4.80;;;27.40;79.60;;;;;;5083759;28;20268;-44
2021/06/15 07:56:43;;;;;;;21.98;5.88;;;27.40;79.70;;;;;;5084236;28;20029;-47
2021/06/15 07:59:10;;;;;;;27.33;5.20;;;27.40;79.70;;;;;;5083951;28;20046;-44
2021/06/15 08:01:37;;;;;;;23.05;6.22;;;27.40;79.80;;;;;;5084297;28;20025;-46
2021/06/15 08:04:03;;;;;;;20.15;5.28;;;27.30;79.30;;;;;;5083942;28;20023;-43
2021/06/15 08:06:30;;;;;;;21.08;5.47;;;27.40;79.40;;;;;;5084334;28;20051;-48
2021/06/15 08:08:57;;;;;;;21.88;5.82;;;27.40;79.40;;;;;;5083819;28;20025;-44
2021/06/15 08:11:23;;;;;;;26.95;5.68;;;27.30;79.30;;;;;;5084042;28;20087;-44
2021/06/15 08:13:50;;;;;;;21.58;5.45;;;27.30;79.50;;;;;;5083790;28;20017;-45
2021/06/15 08:16:17;;;;;;;23.38;4.97;;;27.30;79.20;;;;;;5083946;28;20104;-49
2021/06/15 08:18:43;;;;;;;24.73;5.60;;;27.30;79.40;;;;;;5083728;28;20359;-46
2021/06/15 08:21:10;;;;;;;20.05;5.75;;;27.30;79.30;;;;;;5084359;28;20392;-47
2021/06/15 08:23:36;;;;;;;20.90;4.93;;;27.30;79.70;;;;;;5083710;28;20020;-44
2021/06/15 08:26:03;;;;;;;22.27;5.80;;;27.30;80.00;;;;;;5084161;28;20024;-46
2021/06/15 08:28:30;;;;;;;21.27;4.97;;;27.30;80.00;;;;;;5083729;28;20025;-50
2021/06/15 08:30:57;;;;;;;27.88;5.22;;;27.20;79.80;;;;;;5083886;28;20041;-43
2021/06/15 08:33:25;;;;;;;23.23;5.68;;;27.20;79.40;;;;;;5083725;28;20028;-45
2021/06/15 08:35:52;;;;;;;23.23;4.85;;;27.30;79.20;;;;;;5083883;28;20096;-45
2021/06/15 08:38:19;;;;;;;19.13;5.10;;;27.20;79.20;;;;;;5083487;28;20061;-46
2021/06/15 08:40:51;;;;;;;14.88;4.50;;;27.20;78.80;;;;;;5083800;28;20021;-46
2021/06/15 08:43:19;;;;;;;23.00;4.88;;;27.20;78.60;;;;;;5083531;28;20080;-48
2021/06/15 08:45:47;;;;;;;22.65;5.03;;;27.20;77.90;;;;;;5083833;28;20460;-46
2021/06/15 08:48:14;;;;;;;20.92;5.00;;;27.20;77.80;;;;;;5083443;28;20280;-46
2021/06/15 08:50:43;;;;;;;19.58;5.25;;;27.20;77.20;;;;;;5083782;28;20297;-50
2021/06/15 08:53:11;;;;;;;18.35;4.57;;;27.20;77.00;;;;;;5083505;28;20028;-49
2021/06/15 08:55:39;;;;;;;19.88;5.10;;;27.20;76.80;;;;;;5083457;28;20044;-52
2021/06/15 08:58:24;;;;;;;23.00;4.47;;;27.20;76.80;;;;;;5083371;28;20017;-49
2021/06/15 09:00:51;;;;;;;18.50;4.50;;;27.20;76.40;;;;;;5087248;28;20025;-50
2021/06/15 09:03:18;;;;;;;18.88;4.47;;;27.20;76.40;;;;;;5069450;28;20243;-45
2021/06/15 09:05:45;;;;;;;19.75;4.90;;;27.20;76.50;;;;;;5087510;28;20182;-45
2021/06/15 09:08:13;;;;;;;20.77;4.40;;;27.20;76.60;;;;;;5087146;28;20016;-46
2021/06/15 09:10:46;;;;;;;14.27;4.55;;;27.10;76.50;;;;;;5087278;28;20033;-47
2021/06/15 09:13:34;;;;;;;19.42;4.07;;;27.20;76.40;;;;;;5087200;28;20024;-50
2021/06/15 09:16:16;;;;;;;19.00;4.65;;;27.20;76.30;;;;;;5087184;28;20063;-47
2021/06/15 09:18:43;;;;;;;18.60;4.95;;;27.10;76.10;;;;;;5087195;28;20028;-48
2021/06/15 09:21:10;;;;;;;15.07;4.35;;;27.10;75.90;;;;;;5086990;28;20032;-47
2021/06/15 09:23:38;;;;;;;16.50;4.40;;;27.10;75.30;;;;;;5086699;28;20024;-48
2021/06/15 09:26:06;;;;;;;20.52;4.85;;;27.10;75.60;;;;;;5086741;28;20190;-48
2021/06/15 09:28:33;;;;;;;20.35;4.45;;;27.10;75.80;;;;;;5086686;28;20047;-48
2021/06/15 09:31:08;;;;;;;20.13;4.47;;;27.10;75.40;;;;;;5086951;28;20035;-49
2021/06/15 09:33:48;;;;;;;17.17;4.47;;;27.10;75.60;;;;;;5086867;28;20040;-47
2021/06/15 09:36:14;;;;;;;16.92;4.40;;;27.10;75.60;;;;;;5086587;28;20364;-45
2021/06/15 09:38:57;;;;;;;18.10;4.50;;;27.10;75.30;;;;;;5086723;28;20194;-46
2021/06/15 09:41:42;;;;;;;14.60;3.85;;;27.10;74.90;;;;;;5086725;28;20025;-50
2021/06/15 09:44:14;;;;;;;19.48;4.47;;;27.00;74.90;;;;;;5086395;28;20027;-45
2021/06/15 09:46:44;;;;;;;;;;;27.10;75.00;;;;;;5087348;28;20197;-50
2021/06/15 09:49:12;;;;;;;17.67;4.45;;;27.00;74.90;;;;;;5086379;28;19900;-44
2021/06/15 09:51:42;;;;;;;17.75;4.10;;;27.10;75.00;;;;;;5086567;28;20055;-47
2021/06/15 09:54:12;;;;;;;14.73;4.25;;;27.00;75.00;;;;;;5085904;28;20209;-44
2021/06/15 09:56:40;;;;;;;19.60;4.15;;;27.00;75.00;;;;;;5086507;28;20032;-44
2021/06/15 09:59:07;;;;;;;18.05;4.40;;;27.00;74.90;;;;;;5086315;28;20242;-48
2021/06/15 10:01:43;;;;;;;16.45;3.92;;;27.00;74.80;;;;;;5086567;28;20043;-45
2021/06/15 10:04:16;;;;;;;14.77;4.13;;;27.00;74.80;;;;;;5086318;28;20173;-45
2021/06/15 10:06:53;;;;;;;20.48;4.07;;;27.00;75.00;;;;;;5086286;28;20023;-49
2021/06/15 10:09:35;;;;;;;19.20;3.70;;;27.00;74.50;;;;;;5086156;28;20239;-50
2021/06/15 10:12:04;;;;;;;12.57;4.00;;;27.10;74.60;;;;;;5085639;28;20028;-46
2021/06/15 10:14:31;;;;;;;16.95;4.53;;;27.00;74.60;;;;;;5086135;28;20243;-47
2021/06/15 10:16:59;;;;;;;16.08;4.03;;;27.10;75.10;;;;;;5086110;28;20317;-48
2021/06/15 10:19:27;;;;;;;17.33;3.90;;;27.10;74.80;;;;;;5085794;28;20031;-51
2021/06/15 10:21:55;;;;;;;11.30;3.53;;;27.10;74.90;;;;;;5086251;28;20055;-45
2021/06/15 10:24:23;;;;;;;15.57;4.10;;;27.00;75.00;;;;;;5085669;28;20088;-50
2021/06/15 10:26:54;;;;;;;17.90;3.90;;;27.00;75.00;;;;;;5086321;28;20042;-49
2021/06/15 10:29:21;;;;;;;16.48;4.00;;;27.00;74.80;;;;;;5085630;28;20165;-46
2021/06/15 10:31:52;;;;;;;16.42;4.30;;;27.00;75.20;;;;;;5085700;28;20261;-54
2021/06/15 10:34:47;;;;;;;16.52;4.60;;;27.00;75.40;;;;;;5085659;28;20123;-51
2021/06/15 10:37:31;;;;;;;25.67;4.80;;;27.00;75.70;;;;;;5085685;28;20101;-50
2021/06/15 10:40:00;;;;;;;21.70;4.88;;;27.00;75.90;;;;;;5085649;28;20021;-50
2021/06/15 10:42:27;;;;;;;21.02;4.75;;;27.00;76.30;;;;;;5085728;28;20020;-52
2021/06/15 10:45:12;;;;;;;19.50;5.10;;;27.00;76.50;;;;;;5085249;28;20062;-50
2021/06/15 10:47:40;;;;;;;18.98;4.38;;;27.00;76.70;;;;;;5085055;28;20252;-48
2021/06/15 10:50:07;;;;;;;19.15;4.13;;;27.00;77.10;;;;;;5085289;28;20081;-44
2021/06/15 10:53:02;;;;;;;18.55;4.28;;;27.00;77.20;;;;;;5085386;28;20088;-47
2021/06/15 10:55:49;;;;;;;17.92;3.97;;;26.90;77.40;;;;;;5084987;28;20056;-48
2021/06/15 10:58:37;;;;;;;15.15;4.05;;;26.90;77.70;;;;;;5084690;28;20282;-51
2021/06/15 11:01:26;;;;;;;18.67;3.70;;;26.90;77.80;;;;;;5085508;28;20208;-45
2021/06/15 11:03:57;;;;;;;19.30;3.95;;;26.80;78.00;;;;;;5084928;28;20019;-48
2021/06/15 11:06:30;;;;;;;14.80;3.47;;;26.80;78.20;;;;;;5085146;28;20090;-49
2021/06/15 11:09:05;;;;;;;18.60;4.80;;;26.80;78.50;;;;;;5084974;28;20028;-48
2021/06/15 11:11:34;;;;;;;16.92;4.80;;;26.80;78.70;;;;;;5084569;28;20197;-51
2021/06/15 11:14:12;;;;;;;23.30;4.68;;;26.80;78.80;;;;;;5084624;28;20024;-49
2021/06/15 11:16:44;;;;;;;18.67;4.20;;;26.80;78.70;;;;;;5084845;28;20329;-52
2021/06/15 11:19:14;;;;;;;15.57;4.17;;;26.90;78.80;;;;;;5084514;28;20102;-50
2021/06/15 11:21:49;;;;;;;16.10;4.15;;;27.00;78.60;;;;;;5084442;28;20279;-46
2021/06/15 11:24:25;;;;;;;21.83;4.85;;;27.00;78.90;;;;;;5084445;28;20197;-45
2021/06/15 11:26:54;;;;;;;19.13;4.68;;;26.90;78.90;;;;;;5085058;28;20088;-54
2021/06/15 11:29:36;;;;;;;18.60;4.32;;;27.00;78.80;;;;;;5084302;28;20036;-49
2021/06/15 11:32:22;;;;;;;18.10;5.65;;;27.10;79.00;;;;;;5084670;28;20028;-51
2021/06/15 11:35:04;;;;;;;18.95;4.95;;;27.10;78.80;;;;;;5084516;28;20044;-52
2021/06/15 11:37:49;;;;;;;18.93;4.27;;;27.20;78.70;;;;;;5084126;28;20028;-43
2021/06/15 11:40:44;;;;;;;18.67;4.50;;;27.30;78.40;;;;;;5084055;28;20027;-50
2021/06/15 11:43:12;;;;;;;15.13;3.88;;;27.40;78.10;;;;;;5067090;28;20026;-48
2021/06/15 11:45:44;;;;;;;22.48;4.18;;;27.70;77.20;;;;;;5084234;28;20325;-48
2021/06/15 11:48:31;;;;;;;23.63;4.95;;;28.00;75.80;;;;;;5084340;28;20021;-51
2021/06/15 11:51:06;;;;;;;21.17;4.45;;;28.20;74.80;;;;;;5084250;28;20028;-50
2021/06/15 11:53:39;;;;;;;20.33;4.38;;;28.40;73.60;;;;;;5083971;28;20024;-44
2021/06/15 11:56:11;;;;;;;26.77;5.20;;;28.40;74.20;;;;;;5083465;28;20367;-51
2021/06/15 11:58:54;;;;;;;21.35;5.82;;;28.30;75.00;;;;;;5066284;28;20024;-50
2021/06/15 12:01:22;;;;;;;24.13;5.47;;;28.10;75.30;;;;;;5084060;28;20031;-51
2021/06/15 12:03:50;;;;;;;20.95;5.25;;;27.90;75.80;;;;;;5083748;28;20023;-50
2021/06/15 12:06:19;;;;;;;22.67;5.60;;;27.80;76.40;;;;;;5084167;28;20040;-46
2021/06/15 12:08:49;;;;;;;20.17;5.15;;;27.70;76.70;;;;;;5083671;28;20016;-49
2021/06/15 12:11:18;;;;;;;23.45;5.80;;;27.70;77.10;;;;;;5086652;28;20077;-54
2021/06/15 12:13:48;;;;;;;28.08;5.80;;;27.60;77.40;;;;;;5103912;28;20016;-50
2021/06/15 12:16:24;;;;;;;23.40;5.80;;;27.60;77.70;;;;;;5096899;28;20020;-49
2021/06/15 12:18:56;;;;;;;22.45;5.47;;;27.60;78.20;;;;;;5083708;28;20047;-48
2021/06/15 12:21:32;;;;;;;21.88;4.93;;;27.50;78.40;;;;;;5083865;28;20044;-50
2021/06/15 12:24:07;;;;;;;24.38;5.35;;;27.50;79.00;;;;;;5083800;28;20016;-49
2021/06/15 12:26:37;;;;;;;24.88;5.75;;;27.40;79.30;;;;;;5083733;28;20194;-49
2021/06/15 12:29:05;;;;;;;24.65;6.22;;;27.40;79.70;;;;;;5083676;28;20013;-48
2021/06/15 12:31:34;;;;;;;17.70;5.82;;;27.40;80.60;;;;;;5065733;28;20025;-43
2021/06/15 12:34:12;;;;;;;19.77;5.20;;;27.40;80.50;;;;;;5085411;28;20336;-45
2021/06/15 12:36:45;;;;;;;18.92;5.85;;;27.40;80.30;;;;;;5087823;28;20187;-52
2021/06/15 12:39:17;;;;;;;17.25;5.22;;;27.40;80.10;;;;;;5087734;28;20376;-45
2021/06/15 12:41:48;;;;;;;23.47;6.47;;;27.40;79.70;;;;;;5087798;28;20201;-55
2021/06/15 12:44:16;;;;;;;21.55;5.93;;;27.40;79.70;;;;;;5087562;28;20613;-49
2021/06/15 12:46:43;;;;;;;26.55;6.15;;;27.40;79.60;;;;;;5093060;28;20016;-47
2021/06/15 12:49:20;;;;;;;29.23;6.75;;;27.40;79.80;;;;;;5098196;28;20032;-43
2021/06/15 12:51:59;;;;;;;32.10;7.28;;;27.40;80.00;;;;;;5072063;28;20020;-49
2021/06/15 12:54:38;;;;;;;26.25;6.82;;;27.40;80.20;;;;;;5087159;28;20690;-46
2021/06/15 12:57:07;;;;;;;26.08;6.03;;;27.40;80.80;;;;;;5088138;28;20071;-45
2021/06/15 12:59:55;;;;;;;23.92;6.25;;;27.30;80.80;;;;;;5086985;28;20020;-44